createdAt,value
2022-08-21T02:26:56.373Z,3.05
2022-08-21T02:29:24.158Z,3.30
2022-08-21T02:31:51.239Z,3.25
2022-08-21T02:34:18.319Z,3.17
2022-08-21T02:36:45.669Z,3.38
2022-08-21T02:39:27.408Z,3.47
2022-08-21T02:41:55.131Z,3.40
2022-08-21T02:44:22.207Z,3.97
2022-08-21T02:47:02.016Z,3.90
2022-08-21T02:49:29.118Z,3.78
2022-08-21T02:51:56.141Z,3.80
2022-08-21T02:54:23.499Z,4.28
2022-08-21T02:56:50.915Z,3.60
2022-08-21T02:59:18.954Z,3.80
2022-08-21T03:01:46.289Z,3.97
2022-08-21T03:04:13.486Z,3.67
2022-08-21T03:06:40.586Z,4.25
2022-08-21T03:09:08.533Z,3.65
2022-08-21T03:11:37.506Z,3.30
2022-08-21T03:14:06.125Z,3.58
2022-08-21T03:16:35.222Z,3.45
2022-08-21T03:19:04.541Z,3.53
2022-08-21T03:21:31.713Z,3.60
2022-08-21T03:23:59.174Z,3.55
2022-08-21T03:26:30.645Z,3.47
2022-08-21T03:28:58.769Z,3.65
2022-08-21T03:31:31.731Z,3.58
2022-08-21T03:33:59.628Z,3.17
2022-08-21T03:36:26.848Z,3.60
2022-08-21T03:38:55.006Z,3.80
2022-08-21T03:41:22.263Z,3.50
2022-08-21T03:43:49.445Z,3.53
2022-08-21T03:46:16.762Z,3.45
2022-08-21T03:48:44.034Z,3.67
2022-08-21T03:51:11.272Z,3.67
2022-08-21T03:53:39.038Z,3.55
2022-08-21T03:56:06.891Z,3.28
2022-08-21T03:58:34.245Z,3.38
2022-08-21T04:01:04.162Z,3.47
2022-08-21T04:03:31.398Z,3.58
2022-08-21T04:05:58.894Z,3.40
2022-08-21T04:08:26.787Z,3.28
2022-08-21T04:10:57.542Z,3.33
2022-08-21T04:13:24.606Z,3.50
2022-08-21T04:15:52.223Z,3.22
2022-08-21T04:18:19.562Z,3.60
2022-08-21T04:20:52.779Z,3.40
2022-08-21T04:23:23.692Z,3.42
2022-08-21T04:25:57.102Z,3.17
2022-08-21T04:28:29.249Z,3.40
2022-08-21T04:30:58.330Z,3.15
2022-08-21T04:33:26.537Z,3.45
2022-08-21T04:35:54.227Z,3.42
2022-08-21T04:38:21.753Z,3.05
2022-08-21T04:40:51.389Z,3.30
2022-08-21T04:43:20.355Z,3.38
2022-08-21T04:45:50.042Z,3.30
2022-08-21T04:48:24.952Z,3.20
2022-08-21T04:51:00.988Z,3.25
2022-08-21T04:53:48.186Z,3.20
2022-08-21T04:56:50.208Z,3.10
2022-08-21T04:59:25.363Z,3.22
2022-08-21T05:01:55.930Z,3.83
2022-08-21T05:04:31.171Z,4.00
2022-08-21T05:07:04.922Z,3.88
2022-08-21T05:09:33.311Z,4.38
2022-08-21T05:12:04.770Z,4.50
2022-08-21T05:14:32.050Z,4.22
2022-08-21T05:16:59.988Z,4.45
2022-08-21T05:19:27.547Z,4.85
2022-08-21T05:21:55.157Z,4.28
2022-08-21T05:24:22.750Z,4.95
2022-08-21T05:26:49.970Z,5.97
2022-08-21T05:29:18.188Z,5.20
2022-08-21T05:31:47.919Z,5.80
2022-08-21T05:34:20.772Z,6.20
2022-08-21T05:36:48.658Z,6.63
2022-08-21T05:39:16.198Z,6.55
2022-08-21T05:41:43.411Z,6.97
2022-08-21T05:44:11.249Z,7.45
2022-08-21T05:46:39.388Z,7.00
2022-08-21T05:49:06.519Z,7.15
2022-08-21T05:51:33.905Z,7.13
2022-08-21T05:54:01.428Z,7.22
2022-08-21T05:56:28.598Z,6.85
2022-08-21T05:58:56.836Z,6.65
2022-08-21T06:01:24.028Z,6.55
2022-08-21T06:03:51.185Z,7.78
2022-08-21T06:06:18.835Z,7.85
2022-08-21T06:08:46.329Z,7.80
2022-08-21T06:11:13.357Z,7.53
2022-08-21T06:13:40.641Z,7.80
2022-08-21T06:16:15.689Z,6.97
2022-08-21T06:18:46.622Z,7.53
2022-08-21T06:21:14.805Z,7.82
2022-08-21T06:23:43.766Z,7.30
2022-08-21T06:26:15.356Z,7.95
2022-08-21T06:28:44.267Z,7.80
2022-08-21T07:17:45.999Z,9.25
2022-08-21T07:20:14.051Z,9.88
2022-08-21T07:22:42.067Z,10.00
2022-08-21T07:25:09.942Z,10.30
2022-08-21T07:27:37.315Z,10.63
2022-08-21T07:30:07.176Z,10.18
2022-08-21T07:32:34.529Z,10.18
2022-08-21T07:35:01.971Z,11.02
2022-08-21T07:37:29.058Z,10.75
2022-08-21T07:39:57.644Z,11.57
2022-08-21T07:42:25.421Z,10.82
2022-08-21T07:44:56.405Z,11.13
2022-08-21T07:47:41.463Z,11.18
2022-08-21T07:50:12.775Z,11.88
2022-08-21T07:52:42.860Z,12.00
2022-08-21T07:55:24.697Z,12.18
2022-08-21T07:57:52.146Z,11.38
2022-08-21T08:00:27.029Z,12.18
2022-08-21T08:02:55.597Z,12.43
2022-08-21T08:05:28.118Z,11.55
2022-08-21T08:07:56.380Z,11.10
2022-08-21T08:10:25.310Z,12.43
2022-08-21T08:12:55.375Z,12.38
2022-08-21T08:15:27.569Z,12.02
2022-08-21T08:20:27.198Z,12.77
2022-08-21T08:22:55.394Z,12.50
2022-08-21T08:25:24.505Z,13.48
2022-08-21T08:27:51.978Z,13.85
2022-08-21T08:30:21.397Z,12.85
2022-08-21T08:32:49.403Z,14.52
2022-08-21T08:35:17.346Z,13.07
2022-08-21T08:37:46.728Z,12.75
2022-08-21T08:40:52.302Z,13.05
2022-08-21T08:43:20.734Z,12.68
2022-08-21T08:45:54.364Z,12.65
2022-08-21T08:48:52.858Z,12.82
2022-08-21T08:51:38.414Z,13.07
2022-08-21T08:54:14.025Z,12.63
2022-08-21T08:56:41.655Z,12.65
2022-08-21T08:59:21.951Z,11.88
2022-08-21T09:01:50.225Z,11.90
2022-08-21T09:04:28.846Z,11.75
2022-08-21T09:07:35.947Z,12.23
2022-08-21T09:10:24.226Z,11.70
2022-08-21T09:13:24.082Z,12.10
2022-08-21T09:16:41.701Z,11.80
2022-08-21T09:19:36.756Z,11.35
2022-08-21T09:22:34.446Z,11.23
2022-08-21T09:25:23.987Z,11.57
2022-08-21T09:27:52.097Z,11.85
2022-08-21T09:30:29.779Z,12.27
2022-08-21T09:32:57.982Z,11.50
2022-08-21T09:35:26.873Z,12.15
2022-08-21T09:38:07.530Z,11.45
2022-08-21T09:40:47.448Z,11.77
2022-08-21T09:43:28.491Z,13.27
2022-08-21T09:46:22.193Z,12.02
2022-08-21T09:48:54.343Z,12.38
2022-08-21T09:51:35.759Z,11.98
2022-08-21T09:54:08.724Z,12.33
2022-08-21T09:57:12.191Z,11.38
2022-08-21T09:59:40.968Z,11.00
2022-08-21T10:02:33.858Z,11.13
2022-08-21T10:05:17.078Z,11.85
2022-08-21T10:07:44.765Z,12.68
2022-08-21T10:10:24.751Z,12.70
2022-08-21T10:13:19.946Z,12.80
2022-08-21T10:16:22.855Z,11.93
2022-08-21T10:19:06.879Z,9.15
2022-08-21T10:21:59.957Z,7.22
2022-08-21T10:25:00.485Z,6.18
2022-08-21T10:27:57.401Z,5.22
2022-08-21T10:30:40.271Z,4.13
2022-08-21T10:33:17.558Z,3.80
2022-08-21T10:36:07.578Z,2.90
2022-08-21T10:39:26.457Z,2.40
2022-08-21T10:42:34.351Z,2.35
2022-08-21T10:45:16.950Z,1.90
2022-08-21T10:47:57.961Z,1.73
2022-08-21T10:50:54.718Z,1.73
2022-08-21T10:53:46.192Z,1.80
2022-08-21T10:56:32.785Z,1.60
2022-08-21T10:59:35.460Z,1.50
2022-08-21T11:02:29.906Z,1.45
2022-08-21T11:05:17.883Z,1.33
2022-08-21T11:08:13.546Z,1.40
2022-08-21T11:11:09.501Z,1.30
2022-08-21T11:13:48.910Z,1.40
2022-08-21T11:16:46.615Z,1.10
2022-08-21T11:19:28.967Z,1.10
2022-08-21T11:22:12.354Z,1.10
2022-08-21T11:24:59.661Z,1.02
2022-08-21T11:27:39.807Z,1.20
2022-08-21T11:30:09.555Z,0.90
2022-08-21T11:33:20.595Z,1.10
2022-08-21T11:35:51.644Z,0.95
2022-08-21T11:38:42.911Z,1.23
2022-08-21T11:41:33.682Z,1.25
2022-08-21T11:44:33.629Z,1.20
2022-08-21T11:47:14.834Z,1.30
2022-08-21T11:50:18.145Z,1.20
2022-08-21T11:53:20.325Z,1.33
2022-08-21T11:56:03.315Z,1.27
2022-08-21T11:58:42.657Z,1.17
2022-08-21T12:01:20.048Z,1.40
2022-08-21T12:04:05.666Z,1.63
2022-08-21T12:06:40.664Z,1.30
2022-08-21T12:09:32.707Z,1.58
2022-08-21T12:12:24.553Z,1.35
2022-08-21T12:15:20.702Z,1.40
2022-08-21T12:18:06.662Z,1.50
2022-08-21T12:20:50.422Z,1.30
2022-08-21T12:23:28.774Z,1.70
2022-08-21T12:26:48.478Z,1.33
2022-08-21T12:29:32.626Z,1.27
2022-08-21T12:32:42.718Z,1.60
2022-08-21T12:35:25.069Z,1.65
2022-08-21T12:38:18.730Z,1.50
2022-08-21T12:40:58.382Z,1.42
2022-08-21T12:43:47.810Z,1.55
2022-08-21T12:46:32.032Z,1.38
2022-08-21T12:49:15.229Z,1.33
2022-08-21T12:52:21.491Z,1.50
2022-08-21T12:54:48.818Z,1.63
2022-08-21T12:57:28.669Z,1.30
2022-08-21T13:00:01.510Z,1.50
2022-08-21T13:02:40.465Z,1.38
2022-08-21T13:05:14.763Z,1.70
2022-08-21T13:07:49.108Z,1.58
2022-08-21T13:10:30.065Z,1.45
2022-08-21T13:13:02.541Z,1.30
2022-08-21T13:15:47.482Z,1.60
2022-08-21T13:18:31.285Z,1.48
2022-08-21T13:21:12.963Z,1.58
2022-08-21T13:23:41.788Z,1.55
2022-08-21T13:26:22.718Z,1.70
2022-08-21T13:28:51.443Z,1.63
2022-08-21T13:31:32.690Z,1.80
2022-08-21T13:34:00.557Z,1.63
2022-08-21T13:36:35.334Z,1.73
2022-08-21T13:39:07.765Z,1.35
2022-08-21T13:41:39.759Z,1.70
2022-08-21T13:46:51.653Z,1.70
2022-08-21T13:49:28.487Z,1.70
2022-08-21T13:51:55.931Z,1.75
2022-08-21T13:54:38.362Z,1.58
2022-08-21T13:57:17.852Z,1.77
2022-08-21T13:59:45.458Z,1.70
2022-08-21T14:02:19.416Z,1.58
2022-08-21T14:04:57.626Z,1.60
2022-08-21T14:07:42.287Z,1.60
2022-08-21T14:10:23.312Z,1.40
2022-08-21T14:13:02.960Z,1.40
2022-08-21T14:15:35.378Z,1.58
2022-08-21T14:18:17.390Z,1.40
2022-08-21T14:20:45.959Z,1.20
2022-08-21T14:23:28.284Z,1.17
2022-08-21T14:26:02.874Z,1.35
2022-08-21T14:28:40.708Z,1.38
2022-08-21T14:31:21.546Z,1.30
2022-08-21T14:33:50.054Z,1.35
2022-08-21T14:36:17.556Z,1.10
2022-08-21T14:38:44.693Z,1.00
2022-08-21T14:41:25.123Z,1.10
2022-08-21T14:43:59.850Z,1.38
2022-08-21T14:46:36.215Z,1.30
2022-08-21T14:49:06.614Z,1.30
2022-08-21T14:51:34.349Z,1.40
2022-08-21T14:54:01.633Z,1.30
2022-08-21T14:56:29.126Z,1.40
2022-08-21T14:59:08.405Z,1.25
2022-08-21T15:01:38.978Z,1.63
2022-08-21T15:04:06.381Z,1.65
2022-08-21T15:06:33.543Z,1.83
2022-08-21T15:09:02.831Z,1.80
2022-08-21T15:11:42.419Z,1.88
2022-08-21T15:14:21.036Z,2.10
2022-08-21T15:16:49.920Z,2.00
2022-08-21T15:19:17.596Z,2.20
2022-08-21T15:21:44.980Z,2.20
2022-08-21T15:24:12.209Z,2.63
2022-08-21T15:26:39.495Z,2.50
2022-08-21T15:29:09.383Z,2.60
2022-08-21T15:31:53.058Z,2.55
2022-08-21T15:34:21.631Z,2.40
2022-08-21T15:36:57.130Z,2.30
2022-08-21T15:39:31.188Z,2.35
2022-08-21T15:42:01.058Z,2.50
2022-08-21T15:44:42.697Z,2.10
2022-08-21T15:47:19.195Z,2.20
2022-08-21T15:49:46.619Z,2.13
2022-08-21T15:52:17.245Z,2.05
2022-08-21T15:54:44.357Z,2.10
2022-08-21T15:57:17.406Z,1.80
2022-08-21T15:59:49.383Z,2.00
2022-08-21T16:02:25.276Z,2.00
2022-08-21T16:04:52.695Z,1.80
2022-08-21T16:07:20.090Z,1.88
2022-08-21T16:09:47.378Z,2.00
2022-08-21T16:12:24.942Z,2.20
2022-08-21T16:14:54.770Z,1.90
2022-08-21T16:17:29.241Z,2.00
2022-08-21T16:19:58.022Z,2.00
2022-08-21T16:22:25.409Z,2.13
2022-08-21T16:25:13.389Z,2.00
2022-08-21T16:27:44.121Z,1.65
2022-08-21T16:30:13.306Z,1.92
2022-08-21T16:32:41.077Z,1.77
2022-08-21T16:35:13.504Z,1.70
2022-08-21T16:37:41.804Z,1.63
2022-08-21T16:40:10.784Z,1.58
2022-08-21T16:42:40.448Z,1.70
2022-08-21T16:45:11.954Z,1.90
2022-08-21T16:47:39.629Z,2.10
2022-08-21T16:50:08.807Z,1.67
2022-08-21T16:52:36.207Z,1.60
2022-08-21T16:55:05.330Z,1.70
2022-08-21T16:57:32.773Z,1.67
2022-08-21T17:00:00.782Z,1.40
2022-08-21T17:02:37.566Z,1.20
2022-08-21T17:05:06.848Z,1.20
2022-08-21T17:07:42.764Z,1.00
2022-08-21T17:10:13.891Z,0.90
2022-08-21T17:12:46.446Z,0.98
2022-08-21T17:15:29.000Z,1.10
2022-08-21T17:20:24.464Z,1.05
2022-08-21T17:22:51.847Z,0.88
2022-08-21T17:25:20.239Z,1.13
2022-08-21T17:27:49.443Z,0.70
2022-08-21T17:30:18.209Z,0.80
2022-08-21T17:32:48.258Z,1.00
2022-08-21T17:35:16.097Z,1.00
2022-08-21T17:37:43.878Z,1.00
2022-08-21T17:40:15.444Z,1.00
2022-08-21T17:42:46.473Z,1.08
2022-08-21T17:45:18.286Z,0.90
2022-08-21T17:47:45.736Z,0.95
2022-08-21T17:50:15.106Z,0.80
2022-08-21T17:52:46.005Z,0.95
2022-08-21T17:55:17.423Z,0.85
2022-08-21T17:57:48.656Z,0.90
2022-08-21T18:00:18.979Z,1.10
2022-08-21T18:02:51.150Z,1.17
2022-08-21T18:05:18.535Z,1.10
2022-08-21T18:07:45.883Z,1.00
2022-08-21T18:10:13.328Z,1.10
2022-08-21T18:12:44.116Z,1.05
2022-08-21T18:15:16.290Z,1.05
2022-08-21T18:17:50.851Z,1.00
2022-08-21T18:20:22.391Z,1.10
2022-08-21T18:22:50.598Z,1.10
2022-08-21T18:25:18.116Z,1.10
2022-08-21T18:27:48.759Z,1.17
2022-08-21T18:30:22.482Z,1.08
2022-08-21T18:32:54.113Z,1.30
2022-08-21T18:35:22.673Z,1.10
2022-08-21T18:37:49.761Z,1.05
2022-08-21T18:40:17.122Z,1.00
2022-08-21T18:42:55.567Z,0.90
2022-08-21T18:45:24.862Z,0.98
2022-08-21T18:47:55.791Z,1.20
2022-08-21T18:50:27.572Z,1.25
2022-08-21T18:52:56.951Z,1.40
2022-08-21T18:55:24.920Z,1.30
2022-08-21T18:57:55.066Z,1.30
2022-08-21T19:00:28.893Z,1.40
2022-08-21T19:02:57.702Z,1.38
2022-08-21T19:05:25.660Z,1.25
2022-08-21T19:07:56.421Z,1.38
2022-08-21T19:10:28.699Z,1.13
2022-08-21T19:12:59.934Z,1.33
2022-08-21T19:15:28.562Z,1.30
2022-08-21T19:17:58.979Z,1.23
2022-08-21T19:20:36.785Z,1.27
2022-08-21T19:23:07.426Z,1.27
2022-08-21T19:25:37.469Z,1.42
2022-08-21T19:28:13.758Z,1.40
2022-08-21T19:30:53.519Z,1.17
2022-08-21T19:33:29.841Z,1.30
2022-08-21T19:35:59.165Z,1.30
2022-08-21T19:38:27.882Z,1.20
2022-08-21T19:40:57.249Z,1.15
2022-08-21T19:43:24.922Z,1.25
2022-08-21T19:45:56.922Z,1.20
2022-08-21T19:48:26.255Z,1.10
2022-08-21T19:50:53.530Z,1.13
2022-08-21T19:53:21.525Z,1.10
2022-08-21T19:55:49.222Z,1.27
2022-08-21T19:58:40.279Z,1.10
2022-08-21T20:01:12.502Z,1.30
2022-08-21T20:03:54.170Z,1.30
2022-08-21T20:06:24.337Z,1.27
2022-08-21T20:08:54.670Z,1.20
2022-08-21T20:11:34.382Z,1.30
2022-08-21T20:14:02.675Z,1.35
2022-08-21T20:16:31.166Z,1.20
2022-08-21T20:18:59.087Z,1.30
2022-08-21T20:21:26.649Z,1.40
2022-08-21T20:23:54.008Z,1.27
2022-08-21T20:26:22.826Z,1.20
2022-08-21T20:31:38.275Z,1.05
2022-08-21T20:34:08.371Z,1.15
2022-08-21T20:36:35.366Z,1.10
2022-08-21T20:39:09.218Z,1.25
2022-08-21T20:41:38.611Z,1.02
2022-08-21T20:44:12.784Z,1.05
2022-08-21T20:46:40.421Z,1.10
2022-08-21T20:49:09.338Z,1.00
2022-08-21T20:51:44.768Z,0.90
2022-08-21T20:54:30.524Z,1.10
2022-08-21T20:57:14.898Z,1.33
2022-08-21T20:59:52.019Z,1.10
2022-08-21T21:02:43.079Z,1.15
2022-08-21T21:05:28.129Z,1.20
2022-08-21T21:08:25.293Z,1.20
2022-08-21T21:11:05.950Z,1.27
2022-08-21T21:13:57.411Z,1.05
2022-08-21T21:16:50.809Z,1.02
2022-08-21T21:19:46.495Z,1.00
2022-08-21T21:22:21.783Z,1.00
2022-08-21T21:25:12.926Z,0.77
2022-08-21T21:27:50.525Z,0.80
2022-08-21T21:30:34.694Z,1.10
2022-08-21T21:33:04.501Z,0.98
2022-08-21T21:39:07.586Z,1.10
2022-08-21T21:41:56.758Z,0.98
2022-08-21T21:44:47.525Z,0.88
2022-08-21T21:47:32.515Z,0.90
2022-08-21T21:50:34.571Z,0.80
2022-08-21T21:53:53.167Z,0.90
2022-08-21T21:57:14.016Z,0.90
2022-08-21T22:00:00.758Z,0.98
2022-08-21T22:03:16.783Z,0.93
2022-08-21T22:06:35.802Z,0.90
2022-08-21T22:09:48.778Z,0.77
2022-08-21T22:12:28.146Z,0.80
2022-08-21T22:14:56.109Z,0.70
2022-08-21T22:17:50.194Z,0.70
2022-08-21T22:20:30.189Z,0.77
2022-08-21T22:23:00.714Z,0.80
2022-08-21T22:25:36.315Z,0.70
2022-08-21T22:28:25.527Z,0.70
2022-08-21T22:31:12.906Z,0.80
2022-08-21T22:33:42.230Z,0.57
2022-08-21T22:36:21.434Z,0.60
2022-08-21T22:38:48.533Z,0.70
2022-08-21T22:41:31.970Z,0.60
2022-08-21T22:44:06.985Z,0.43
2022-08-21T22:46:55.523Z,0.57
2022-08-21T22:49:44.109Z,0.75
2022-08-21T22:52:31.739Z,0.65
2022-08-21T22:55:17.802Z,0.57
2022-08-21T22:58:11.007Z,0.60
2022-08-21T23:01:12.067Z,0.50
2022-08-21T23:03:48.427Z,0.50
2022-08-21T23:06:46.695Z,0.52
2022-08-21T23:09:50.136Z,0.50
2022-08-21T23:12:36.354Z,0.50
2022-08-21T23:15:18.093Z,0.47
2022-08-21T23:18:31.696Z,0.50
2022-08-21T23:21:44.830Z,0.50
2022-08-21T23:24:46.614Z,0.52
2022-08-21T23:28:07.422Z,0.50
2022-08-21T23:31:28.378Z,0.60
2022-08-21T23:34:45.166Z,0.55
2022-08-21T23:37:48.832Z,0.60
2022-08-21T23:43:54.307Z,0.50
2022-08-21T23:46:45.838Z,0.40
2022-08-21T23:49:53.894Z,0.60
2022-08-21T23:52:42.797Z,0.38
2022-08-21T23:56:05.135Z,0.40
2022-08-21T23:58:44.002Z,0.40
